createdAt,value
2019-04-25T00:01:03.424Z,0.60
2019-04-25T00:03:36.799Z,0.70
2019-04-25T00:06:09.748Z,0.53
2019-04-25T00:08:43.065Z,0.60
2019-04-25T00:11:14.724Z,0.80
2019-04-25T00:13:46.036Z,0.60
2019-04-25T00:16:19.150Z,0.77
2019-04-25T00:18:51.706Z,0.50
2019-04-25T00:21:31.790Z,0.80
2019-04-25T00:24:08.629Z,0.77
2019-04-25T00:26:45.165Z,0.70
2019-04-25T00:29:17.745Z,0.93
2019-04-25T00:31:49.329Z,1.07
2019-04-25T00:34:21.850Z,0.90
2019-04-25T00:36:53.323Z,0.90
2019-04-25T00:39:26.180Z,1.03
2019-04-25T00:41:58.023Z,1.00
2019-04-25T00:44:29.388Z,1.13
2019-04-25T00:47:02.268Z,1.03
2019-04-25T00:49:34.093Z,1.30
2019-04-25T00:52:05.439Z,1.20
2019-04-25T00:54:36.741Z,1.10
2019-04-25T00:57:08.128Z,1.27
2019-04-25T00:59:45.689Z,1.00
2019-04-25T01:02:27.905Z,1.10
2019-04-25T01:04:59.341Z,1.10
2019-04-25T01:07:32.438Z,1.10
2019-04-25T01:10:05.266Z,0.90
2019-04-25T01:12:36.864Z,0.90
2019-04-25T01:15:11.598Z,1.03
2019-04-25T01:17:45.297Z,1.10
2019-04-25T01:20:17.911Z,1.20
2019-04-25T01:22:49.351Z,0.80
2019-04-25T01:25:23.377Z,1.00
2019-04-25T01:27:55.005Z,0.97
2019-04-25T01:30:27.977Z,1.00
2019-04-25T01:32:59.427Z,1.07
2019-04-25T01:35:36.758Z,1.10
2019-04-25T01:38:18.208Z,1.20
2019-04-25T01:40:57.375Z,0.80
2019-04-25T01:44:00.074Z,0.90
2019-04-25T01:46:32.308Z,1.20
2019-04-25T01:49:04.355Z,1.30
2019-04-25T01:51:36.312Z,1.20
2019-04-25T01:54:07.680Z,1.20
2019-04-25T01:56:39.334Z,1.20
2019-04-25T01:59:11.265Z,1.20
2019-04-25T02:01:44.036Z,1.23
2019-04-25T02:04:15.623Z,1.13
2019-04-25T02:06:47.035Z,1.17
2019-04-25T02:09:20.293Z,1.10
2019-04-25T02:12:04.807Z,1.30
2019-04-25T02:14:36.326Z,1.50
2019-04-25T02:17:07.731Z,1.40
2019-04-25T02:19:39.204Z,1.10
2019-04-25T02:22:10.924Z,1.17
2019-04-25T02:24:55.843Z,1.10
2019-04-25T02:27:28.451Z,1.10
2019-04-25T02:30:01.030Z,1.30
2019-04-25T02:32:34.464Z,1.30
2019-04-25T02:35:09.359Z,1.10
2019-04-25T02:37:40.755Z,1.27
2019-04-25T02:40:14.141Z,1.47
2019-04-25T02:42:45.764Z,1.40
2019-04-25T02:45:48.273Z,1.30
2019-04-25T02:48:38.916Z,1.40
2019-04-25T02:51:26.670Z,1.50
2019-04-25T02:53:59.502Z,1.43
2019-04-25T02:56:37.596Z,1.30
2019-04-25T02:59:08.450Z,1.50
2019-04-25T03:01:38.874Z,1.60
2019-04-25T03:04:11.355Z,1.50
2019-04-25T03:06:45.246Z,1.57
2019-04-25T03:09:16.856Z,1.70
2019-04-25T03:11:48.614Z,1.50
2019-04-25T03:14:19.938Z,1.70
2019-04-25T03:16:54.339Z,1.60
2019-04-25T03:19:34.223Z,1.77
2019-04-25T03:22:11.063Z,1.70
2019-04-25T03:24:40.180Z,1.90
2019-04-25T03:27:12.034Z,1.43
2019-04-25T03:29:55.163Z,1.57
2019-04-25T03:32:28.455Z,1.87
2019-04-25T03:35:00.511Z,1.60
2019-04-25T03:37:33.068Z,1.50
2019-04-25T03:40:06.621Z,1.30
2019-04-25T03:42:39.618Z,1.57
2019-04-25T03:45:13.761Z,1.60
2019-04-25T03:47:45.759Z,1.50
2019-04-25T03:50:17.344Z,1.50
2019-04-25T03:52:48.760Z,1.53
2019-04-25T03:55:20.297Z,1.50
2019-04-25T03:57:51.627Z,1.50
2019-04-25T04:00:24.120Z,1.60
2019-04-25T04:02:55.546Z,2.00
2019-04-25T04:05:27.297Z,1.57
2019-04-25T04:07:58.980Z,1.90
2019-04-25T04:10:30.191Z,1.70
2019-04-25T04:13:01.582Z,1.73
2019-04-25T04:15:33.591Z,1.53
2019-04-25T04:18:17.257Z,1.70
2019-04-25T04:21:16.185Z,1.50
2019-04-25T04:24:04.371Z,1.83
2019-04-25T04:26:35.846Z,1.50
2019-04-25T04:29:07.816Z,1.50
2019-04-25T04:31:39.345Z,1.57
2019-04-25T04:34:10.678Z,1.70
2019-04-25T04:36:43.689Z,1.60
2019-04-25T04:39:16.810Z,1.80
2019-04-25T04:41:48.035Z,1.80
2019-04-25T04:44:19.350Z,1.77
2019-04-25T04:46:50.718Z,1.63
2019-04-25T04:49:23.504Z,1.40
2019-04-25T04:51:56.685Z,1.50
2019-04-25T04:54:28.012Z,1.70
2019-04-25T04:56:59.448Z,1.60
2019-04-25T04:59:31.061Z,1.90
2019-04-25T05:02:24.750Z,1.90
2019-04-25T05:05:24.811Z,1.73
2019-04-25T05:08:18.767Z,2.30
2019-04-25T05:10:50.251Z,1.90
2019-04-25T05:13:22.063Z,1.70
2019-04-25T05:15:53.403Z,1.97
2019-04-25T05:18:34.625Z,2.30
2019-04-25T05:20:57.990Z,1.90
2019-04-25T05:23:29.194Z,2.03
2019-04-25T05:26:00.606Z,2.00
2019-04-25T05:28:33.306Z,2.50
2019-04-25T05:31:19.294Z,2.73
2019-04-25T05:33:50.807Z,2.27
2019-04-25T05:36:23.864Z,1.93
2019-04-25T05:38:55.563Z,2.03
2019-04-25T05:41:38.925Z,2.20
2019-04-25T05:44:10.265Z,2.10
2019-04-25T05:46:41.643Z,2.47
2019-04-25T05:49:13.858Z,2.03
2019-04-25T05:51:45.276Z,2.10
2019-04-25T05:54:16.589Z,2.27
2019-04-25T05:56:47.807Z,2.20
2019-04-25T05:59:19.523Z,1.80
2019-04-25T06:01:50.894Z,1.70
2019-04-25T06:04:24.643Z,2.00
2019-04-25T06:06:55.713Z,1.90
2019-04-25T06:09:48.833Z,1.93
2019-04-25T06:12:28.034Z,1.70
2019-04-25T06:14:59.419Z,1.90
2019-04-25T06:17:38.881Z,1.60
2019-04-25T06:20:13.448Z,1.60
2019-04-25T06:22:58.636Z,1.60
2019-04-25T06:25:36.318Z,1.50
2019-04-25T06:28:05.836Z,1.80
2019-04-25T06:30:37.361Z,1.10
2019-04-25T06:33:09.180Z,1.20
2019-04-25T06:35:40.613Z,1.30
2019-04-25T06:38:13.361Z,1.13
2019-04-25T06:40:44.888Z,1.27
2019-04-25T06:43:16.389Z,1.40
2019-04-25T06:45:55.703Z,1.00
2019-04-25T06:48:45.970Z,1.13
2019-04-25T06:51:17.335Z,1.00
2019-04-25T06:53:48.693Z,1.10
2019-04-25T06:56:20.054Z,0.73
2019-04-25T06:58:51.340Z,0.90
2019-04-25T07:01:25.113Z,1.10
2019-04-25T07:03:55.882Z,0.90
2019-04-25T07:06:27.294Z,0.80
2019-04-25T07:08:58.655Z,0.80
2019-04-25T07:11:30.511Z,0.90
2019-04-25T07:14:01.723Z,0.87
2019-04-25T07:16:34.423Z,0.77
2019-04-25T07:19:06.653Z,0.80
2019-04-25T07:21:38.052Z,0.70
2019-04-25T07:24:09.474Z,0.70
2019-04-25T07:27:03.801Z,0.57
2019-04-25T07:29:51.827Z,0.80
2019-04-25T07:32:35.774Z,0.53
2019-04-25T07:35:07.817Z,0.57
2019-04-25T07:37:41.474Z,0.83
2019-04-25T07:40:13.901Z,0.77
2019-04-25T07:42:45.463Z,0.70
2019-04-25T07:45:18.799Z,0.70
2019-04-25T07:47:50.234Z,0.50
2019-04-25T07:50:21.883Z,0.90
2019-04-25T07:52:53.842Z,0.60
2019-04-25T07:55:25.506Z,0.60
2019-04-25T07:57:56.881Z,0.90
2019-04-25T08:00:29.656Z,0.60
2019-04-25T08:03:01.074Z,0.50
2019-04-25T08:05:35.310Z,0.50
2019-04-25T08:08:05.687Z,0.70
2019-04-25T08:10:59.576Z,0.80
2019-04-25T08:13:39.866Z,0.80
2019-04-25T08:16:14.575Z,0.47
2019-04-25T08:18:47.924Z,0.50
2019-04-25T08:21:19.622Z,0.70
2019-04-25T08:23:53.325Z,0.60
2019-04-25T08:26:25.750Z,0.60
2019-04-25T08:28:57.879Z,0.72
2019-04-25T08:31:30.367Z,0.60
2019-04-25T08:34:03.612Z,0.80
2019-04-25T08:36:37.094Z,0.60
2019-04-25T08:39:11.297Z,1.10
2019-04-25T08:41:45.358Z,0.90
2019-04-25T08:44:16.090Z,0.65
2019-04-25T08:46:48.800Z,0.78
2019-04-25T08:49:38.399Z,0.78
2019-04-25T08:52:10.436Z,0.70
2019-04-25T08:55:00.929Z,1.07
2019-04-25T08:57:51.765Z,0.85
2019-04-25T09:00:36.151Z,0.82
2019-04-25T09:03:11.407Z,0.70
2019-04-25T09:05:46.243Z,1.20
2019-04-25T09:08:18.168Z,0.90
2019-04-25T09:10:49.520Z,0.80
2019-04-25T09:13:21.039Z,1.02
2019-04-25T09:15:54.017Z,0.90
2019-04-25T09:18:25.917Z,1.02
2019-04-25T09:20:57.283Z,1.00
2019-04-25T09:23:29.736Z,1.10
2019-04-25T09:26:01.207Z,0.95
2019-04-25T09:28:35.053Z,0.80
2019-04-25T09:31:05.996Z,1.17
2019-04-25T09:33:37.626Z,0.70
2019-04-25T09:36:09.706Z,0.90
2019-04-25T09:38:41.157Z,0.80
2019-04-25T09:41:13.980Z,1.00
2019-04-25T09:43:46.884Z,0.98
2019-04-25T09:46:31.357Z,0.90
2019-04-25T09:49:08.607Z,0.82
2019-04-25T09:51:44.616Z,0.72
2019-04-25T09:54:34.021Z,0.90
2019-04-25T09:57:34.143Z,0.90
2019-04-25T10:00:09.777Z,0.70
2019-04-25T10:02:41.224Z,0.70
2019-04-25T10:05:13.964Z,0.85
2019-04-25T10:07:46.314Z,1.02
2019-04-25T10:10:18.832Z,0.70
2019-04-25T10:12:50.966Z,0.85
2019-04-25T10:15:59.599Z,0.88
2019-04-25T10:18:33.465Z,0.90
2019-04-25T10:21:08.490Z,1.20
2019-04-25T10:23:42.134Z,1.65
2019-04-25T10:26:14.447Z,0.85
2019-04-25T10:28:45.874Z,1.32
2019-04-25T10:31:17.148Z,1.05
2019-04-25T10:33:48.701Z,1.02
2019-04-25T10:36:20.891Z,0.80
2019-04-25T10:39:04.281Z,0.95
2019-04-25T10:41:25.442Z,0.80
2019-04-25T10:43:57.067Z,1.00
2019-04-25T10:46:28.612Z,1.12
2019-04-25T10:49:00.052Z,0.90
2019-04-25T10:51:31.577Z,1.00
2019-04-25T10:54:04.182Z,0.88
2019-04-25T10:56:35.810Z,0.90
2019-04-25T10:59:07.257Z,1.00
2019-04-25T11:01:38.710Z,0.80
2019-04-25T11:04:29.014Z,0.90
2019-04-25T11:07:00.762Z,0.88
2019-04-25T11:09:33.775Z,0.80
2019-04-25T11:12:08.741Z,0.90
2019-04-25T11:14:40.919Z,0.98
2019-04-25T11:17:13.192Z,0.90
2019-04-25T11:19:45.475Z,0.95
2019-04-25T11:22:16.989Z,1.25
2019-04-25T11:24:48.662Z,0.98
2019-04-25T11:27:20.574Z,1.00
2019-04-25T11:29:53.548Z,0.95
2019-04-25T11:32:28.373Z,0.90
2019-04-25T11:34:59.958Z,1.07
2019-04-25T11:37:34.296Z,1.02
2019-04-25T11:40:19.502Z,1.00
2019-04-25T11:42:51.217Z,0.80
2019-04-25T11:45:23.669Z,0.90
2019-04-25T11:47:56.164Z,0.80
2019-04-25T11:50:28.473Z,0.80
2019-04-25T11:53:00.919Z,0.90
2019-04-25T11:55:32.961Z,0.90
2019-04-25T11:58:04.516Z,1.00
2019-04-25T12:00:36.787Z,0.90
2019-04-25T12:03:08.210Z,0.80
2019-04-25T12:05:39.720Z,1.00
2019-04-25T12:08:13.469Z,1.07
2019-04-25T12:10:45.781Z,0.90
2019-04-25T12:13:20.427Z,0.93
2019-04-25T12:15:51.932Z,1.00
2019-04-25T12:18:23.650Z,1.12
2019-04-25T12:20:57.973Z,0.93
2019-04-25T12:23:30.174Z,1.10
2019-04-25T12:26:01.521Z,0.90
2019-04-25T12:28:33.889Z,1.00
2019-04-25T12:31:05.340Z,1.00
2019-04-25T12:33:37.085Z,1.00
2019-04-25T12:36:08.526Z,1.20
2019-04-25T12:38:40.546Z,1.00
2019-04-25T12:41:11.825Z,0.90
2019-04-25T12:43:48.346Z,1.22
2019-04-25T12:46:26.061Z,0.90
2019-04-25T12:48:57.725Z,1.17
2019-04-25T12:51:29.154Z,1.00
2019-04-25T12:54:00.698Z,0.88
2019-04-25T12:56:32.172Z,1.40
2019-04-25T12:59:04.592Z,1.00
2019-04-25T13:01:36.185Z,1.20
2019-04-25T13:04:07.633Z,1.00
2019-04-25T13:06:39.059Z,1.00
2019-04-25T13:09:13.274Z,1.10
2019-04-25T13:11:44.785Z,1.12
2019-04-25T13:14:16.293Z,1.20
2019-04-25T13:16:47.573Z,0.88
2019-04-25T13:19:23.965Z,0.90
2019-04-25T13:21:52.168Z,0.80
2019-04-25T13:24:23.613Z,1.20
2019-04-25T13:27:03.961Z,1.07
2019-04-25T13:29:45.361Z,0.80
2019-04-25T13:32:27.927Z,0.98
2019-04-25T13:35:00.975Z,0.80
2019-04-25T13:37:34.095Z,0.95
2019-04-25T13:40:06.373Z,1.00
2019-04-25T13:42:40.693Z,1.02
2019-04-25T13:45:14.310Z,1.45
2019-04-25T13:47:45.753Z,1.65
2019-04-25T13:50:17.919Z,1.05
2019-04-25T13:52:49.177Z,1.52
2019-04-25T13:55:21.321Z,1.10
2019-04-25T13:57:54.670Z,1.50
2019-04-25T14:00:27.791Z,1.20
2019-04-25T14:03:03.029Z,0.93
2019-04-25T14:05:35.298Z,1.07
2019-04-25T14:08:07.029Z,1.35
2019-04-25T14:10:39.089Z,1.15
2019-04-25T14:13:11.104Z,1.10
2019-04-25T14:15:47.910Z,1.10
2019-04-25T14:18:53.556Z,1.10
2019-04-25T14:21:26.125Z,1.00
2019-04-25T14:23:58.727Z,1.02
2019-04-25T14:26:31.290Z,1.00
2019-04-25T14:29:04.249Z,1.00
2019-04-25T14:31:45.460Z,1.07
2019-04-25T14:34:09.985Z,1.07
2019-04-25T14:36:41.658Z,0.88
2019-04-25T14:39:15.137Z,0.82
2019-04-25T14:41:49.785Z,1.27
2019-04-25T14:44:22.281Z,1.32
2019-04-25T14:46:55.051Z,0.98
2019-04-25T14:49:26.998Z,1.00
2019-04-25T14:51:58.574Z,0.88
2019-04-25T14:54:36.982Z,0.70
2019-04-25T14:57:16.915Z,1.10
2019-04-25T14:59:48.596Z,0.78
2019-04-25T15:02:22.638Z,1.07
2019-04-25T15:04:53.958Z,0.80
2019-04-25T15:07:25.413Z,0.95
2019-04-25T15:09:56.859Z,0.60
2019-04-25T15:12:29.350Z,0.70
2019-04-25T15:15:00.782Z,1.15
2019-04-25T15:17:43.909Z,0.82
2019-04-25T15:20:06.990Z,0.80
2019-04-25T15:22:38.961Z,0.80
2019-04-25T15:25:10.781Z,0.72
2019-04-25T15:27:42.194Z,0.85
2019-04-25T15:30:18.857Z,0.80
2019-04-25T15:32:50.391Z,0.60
2019-04-25T15:35:24.642Z,0.80
2019-04-25T15:38:05.066Z,0.80
2019-04-25T15:40:42.058Z,0.75
2019-04-25T15:43:36.410Z,0.80
2019-04-25T15:46:16.406Z,0.60
2019-04-25T15:48:48.217Z,0.85
2019-04-25T15:51:19.600Z,0.90
2019-04-25T15:53:50.924Z,0.78
2019-04-25T15:56:22.374Z,0.70
2019-04-25T15:58:54.175Z,1.17
2019-04-25T16:01:26.497Z,0.82
2019-04-25T16:03:58.211Z,1.77
2019-04-25T16:06:30.055Z,0.88
2019-04-25T16:09:01.460Z,0.60
2019-04-25T16:11:35.103Z,0.85
2019-04-25T16:14:06.665Z,1.10
2019-04-25T16:16:38.435Z,0.70
2019-04-25T16:19:10.006Z,0.88
2019-04-25T16:21:42.235Z,0.80
2019-04-25T16:24:13.733Z,0.78
2019-04-25T16:26:45.101Z,0.80
2019-04-25T16:29:16.376Z,1.12
2019-04-25T16:31:47.813Z,0.55
2019-04-25T16:34:19.150Z,0.72
2019-04-25T16:36:50.585Z,2.30
2019-04-25T16:39:24.122Z,0.90
2019-04-25T16:41:55.619Z,0.70
2019-04-25T16:44:27.641Z,0.68
2019-04-25T16:47:00.079Z,1.02
2019-04-25T16:49:32.558Z,1.02
2019-04-25T16:52:05.754Z,1.05
2019-04-25T16:54:38.080Z,0.93
2019-04-25T16:57:09.540Z,1.02
2019-04-25T16:59:40.798Z,1.15
2019-04-25T17:02:12.325Z,1.12
2019-04-25T17:04:43.899Z,0.90
2019-04-25T17:07:15.754Z,1.02
2019-04-25T17:09:47.365Z,1.12
2019-04-25T17:12:19.720Z,1.00
2019-04-25T17:15:09.962Z,1.00
2019-04-25T17:18:04.423Z,1.02
2019-04-25T17:20:40.611Z,1.10
2019-04-25T17:23:12.982Z,1.12
2019-04-25T17:25:44.395Z,1.10
2019-04-25T17:28:17.422Z,1.00
2019-04-25T17:30:52.572Z,1.15
2019-04-25T17:33:35.683Z,1.20
2019-04-25T17:36:15.556Z,0.85
2019-04-25T17:38:54.457Z,0.80
2019-04-25T17:41:26.151Z,1.07
2019-04-25T17:43:57.519Z,0.98
2019-04-25T17:46:28.736Z,1.30
2019-04-25T17:49:00.027Z,1.10
2019-04-25T17:51:32.263Z,1.07
2019-04-25T17:54:05.220Z,0.82
2019-04-25T17:56:36.649Z,1.20
2019-04-25T17:59:09.143Z,1.00
2019-04-25T18:01:40.745Z,1.17
2019-04-25T18:04:12.405Z,1.12
2019-04-25T18:06:44.384Z,1.30
2019-04-25T18:09:15.867Z,1.10
2019-04-25T18:11:47.666Z,1.30
2019-04-25T18:14:19.009Z,1.12
2019-04-25T18:16:52.413Z,1.20
2019-04-25T18:19:29.808Z,1.15
2019-04-25T18:22:12.215Z,1.37
2019-04-25T18:25:05.937Z,1.37
2019-04-25T18:27:56.185Z,1.60
2019-04-25T18:30:27.957Z,1.30
2019-04-25T18:33:11.916Z,1.10
2019-04-25T18:35:44.604Z,1.15
2019-04-25T18:38:23.459Z,1.07
2019-04-25T18:41:02.195Z,1.30
2019-04-25T18:43:47.127Z,1.07
2019-04-25T18:46:40.503Z,1.23
2019-04-25T18:49:12.392Z,1.30
2019-04-25T18:51:55.103Z,1.00
2019-04-25T18:54:30.619Z,1.20
2019-04-25T18:57:12.375Z,1.40
2019-04-25T19:00:05.979Z,1.40
2019-04-25T19:03:00.787Z,1.40
2019-04-25T19:05:57.276Z,1.27
2019-04-25T19:08:28.992Z,1.30
2019-04-25T19:11:00.823Z,1.47
2019-04-25T19:13:33.071Z,1.30
2019-04-25T19:16:04.581Z,1.40
2019-04-25T19:18:36.057Z,1.53
2019-04-25T19:21:08.279Z,1.50
2019-04-25T19:23:41.743Z,1.60
2019-04-25T19:26:14.260Z,1.60
2019-04-25T19:28:46.861Z,1.30
2019-04-25T19:31:18.371Z,1.87
2019-04-25T19:33:49.930Z,1.70
2019-04-25T19:36:21.528Z,1.30
2019-04-25T19:38:53.537Z,1.70
2019-04-25T19:41:31.326Z,1.80
2019-04-25T19:44:08.205Z,1.63
2019-04-25T19:46:44.906Z,1.67
2019-04-25T19:49:16.682Z,1.73
2019-04-25T19:51:48.051Z,1.93
2019-04-25T19:54:19.508Z,1.60
2019-04-25T19:56:51.770Z,1.50
2019-04-25T19:59:23.614Z,1.80
2019-04-25T20:01:57.073Z,1.77
2019-04-25T20:04:37.958Z,1.63
2019-04-25T20:07:21.273Z,1.80
2019-04-25T20:10:21.073Z,1.73
2019-04-25T20:12:53.529Z,1.60
2019-04-25T20:15:33.405Z,1.90
2019-04-25T20:18:05.989Z,1.90
2019-04-25T20:20:37.509Z,1.70
2019-04-25T20:23:08.825Z,1.77
2019-04-25T20:25:40.291Z,1.80
2019-04-25T20:28:11.824Z,1.60
2019-04-25T20:30:44.537Z,1.60
2019-04-25T20:33:16.988Z,2.40
2019-04-25T20:35:49.387Z,2.00
2019-04-25T20:38:20.722Z,1.90
2019-04-25T20:40:52.674Z,1.70
2019-04-25T20:43:24.307Z,1.67
2019-04-25T20:45:56.526Z,1.70
2019-04-25T20:48:28.051Z,1.80
2019-04-25T20:50:59.801Z,1.83
2019-04-25T20:53:31.479Z,1.50
2019-04-25T20:56:03.146Z,1.60
2019-04-25T20:58:53.516Z,1.80
2019-04-25T21:01:44.585Z,1.70
2019-04-25T21:04:34.834Z,1.83
2019-04-25T21:07:13.169Z,1.70
2019-04-25T21:09:44.536Z,1.93
2019-04-25T21:12:15.976Z,1.80
2019-04-25T21:15:06.623Z,1.90
2019-04-25T21:18:06.264Z,2.13
2019-04-25T21:20:37.800Z,1.70
2019-04-25T21:23:09.086Z,1.80
2019-04-25T21:25:40.457Z,1.90
2019-04-25T21:28:13.483Z,1.90
2019-04-25T21:30:44.924Z,1.70
2019-04-25T21:33:16.549Z,1.50
2019-04-25T21:35:48.099Z,1.70
2019-04-25T21:38:20.060Z,1.73
2019-04-25T21:41:10.188Z,2.00
2019-04-25T21:43:46.983Z,1.50
2019-04-25T21:46:19.703Z,1.63
2019-04-25T21:48:53.407Z,1.70
2019-04-25T21:51:34.264Z,2.10
2019-04-25T21:54:05.907Z,1.70
2019-04-25T21:56:37.615Z,2.00
2019-04-25T21:59:09.270Z,1.87
2019-04-25T22:01:41.947Z,1.60
2019-04-25T22:04:13.580Z,1.93
2019-04-25T22:06:45.452Z,1.63
2019-04-25T22:09:19.381Z,1.70
2019-04-25T22:11:51.477Z,1.80
2019-04-25T22:14:23.438Z,1.90
2019-04-25T22:16:55.478Z,1.87
2019-04-25T22:19:28.054Z,1.90
2019-04-25T22:22:00.596Z,1.67
2019-04-25T22:24:32.129Z,1.57
2019-04-25T22:27:06.174Z,1.47
2019-04-25T22:29:42.020Z,1.70
2019-04-25T22:32:27.870Z,1.90
2019-04-25T22:35:07.971Z,1.77
2019-04-25T22:37:39.510Z,2.00
2019-04-25T22:40:11.635Z,1.80
2019-04-25T22:42:43.427Z,2.00
2019-04-25T22:45:15.195Z,1.57
2019-04-25T22:47:46.905Z,1.80
2019-04-25T22:50:18.466Z,1.70
2019-04-25T22:52:50.191Z,1.70
2019-04-25T22:55:21.716Z,1.60
2019-04-25T22:57:53.014Z,1.50
2019-04-25T23:00:28.849Z,1.90
2019-04-25T23:03:05.892Z,1.73
2019-04-25T23:05:42.834Z,1.40
2019-04-25T23:08:14.550Z,1.77
2019-04-25T23:10:46.247Z,1.57
2019-04-25T23:13:19.246Z,1.60
2019-04-25T23:15:50.551Z,1.90
2019-04-25T23:18:22.394Z,1.77
2019-04-25T23:20:53.838Z,1.90
2019-04-25T23:23:25.465Z,1.67
2019-04-25T23:26:08.980Z,2.07
2019-04-25T23:28:42.592Z,2.00
2019-04-25T23:31:18.739Z,1.60
2019-04-25T23:33:51.127Z,1.70
2019-04-25T23:36:22.841Z,1.80
2019-04-25T23:38:54.364Z,1.67
2019-04-25T23:41:26.211Z,1.80
2019-04-25T23:43:57.579Z,1.90
2019-04-25T23:46:29.545Z,2.20
2019-04-25T23:49:00.944Z,1.70
2019-04-25T23:51:32.638Z,1.73
2019-04-25T23:54:05.304Z,2.00
2019-04-25T23:56:36.961Z,1.70
2019-04-25T23:59:11.489Z,1.53
